Portada
METAR-TAF:

METAR-TAF

Aeroports :

Base aèria Alcantarilla

Múrcia, Espanya

latitud: 37-57N, longitud: 001-14W, altitud: 75 m

Observació

L'informe es va fer fa 3 hores i 41 minuts, a les 18:00 UTC
Vent 5 kt del Oest/Nord-Oest
Temperatura 10°C
Humitat 50%
Pressió 1012 hPa
Visibilitat 10 km o més
sense núvols per sota de 1500 mi sense presència de cumulonimbus.

METAR: LERI 221800Z 30005KT CAVOK 10/M00 Q1012 NOSIG

Hora: 22:41 (21:41 UTC)

Pronòstic

L'informe es va fer fa 7 hores i 41 minuts, a les 14:00 UTC
Pronòstic vàlid del 22 a les 15 UTC al 22 a les 24 UTC
Vent 12 kt del Oest/Nord-Oest
Visibilitat 10 km o més
Escasses núvols a una alçada de 4000 ft
Temporalment
l' 22 a les 15 UTC al 22 a les 22 UTC
Vent 14 kt del Oest/Nord-Oest amb ràfegues de 24 kt

TAF: LERI 221400Z 2215/2224 29012KT 9999 FEW040 TEMPO 2215/2222 29014G24KT

Observacions i pronòstics meteorològics de més de 4000 aeroports (METAR i TAF).

Les estacions disponibles són els punts grocs i vermells al mapa.

Posi el ratolí al punt desitjat per veure el nom de l'estació.

Feu clic per veure les observacions i els pronòstics meteorològics.

Per canviar el mapa: feu clic els botons verds amb una creu de color negre per apropar; al botó verd amb un guió per allunyar la imatge; o en les fletxes verdes per a mapes adjacents.


METAR-TAF: